sensor_id;sensor_type;location;lat;lon;timestamp;temperature;humidity
13856;DHT22;6998;53.608;9.958;2022-07-03T00:02:19;19.10;99.90
13856;DHT22;6998;53.608;9.958;2022-07-03T00:04:45;19.10;99.90
13856;DHT22;6998;53.608;9.958;2022-07-03T00:07:12;19.10;99.90
13856;DHT22;6998;53.608;9.958;2022-07-03T00:09:39;19.00;99.90
13856;DHT22;6998;53.608;9.958;2022-07-03T00:12:08;19.00;99.90
13856;DHT22;6998;53.608;9.958;2022-07-03T00:14:35;19.00;99.90
13856;DHT22;6998;53.608;9.958;2022-07-03T00:17:02;19.00;99.90
13856;DHT22;6998;53.608;9.958;2022-07-03T00:19:28;19.00;99.90
13856;DHT22;6998;53.608;9.958;2022-07-03T00:21:56;18.90;99.90
13856;DHT22;6998;53.608;9.958;2022-07-03T00:24:26;19.00;99.90
13856;DHT22;6998;53.608;9.958;2022-07-03T00:26:55;19.00;99.90
13856;DHT22;6998;53.608;9.958;2022-07-03T00:29:31;19.00;99.90
13856;DHT22;6998;53.608;9.958;2022-07-03T00:32:02;19.00;99.90
13856;DHT22;6998;53.608;9.958;2022-07-03T00:34:29;19.00;99.90
13856;DHT22;6998;53.608;9.958;2022-07-03T00:36:57;19.00;99.90
13856;DHT22;6998;53.608;9.958;2022-07-03T00:39:24;19.00;99.90
13856;DHT22;6998;53.608;9.958;2022-07-03T00:41:59;19.00;99.90
13856;DHT22;6998;53.608;9.958;2022-07-03T00:44:29;18.90;99.90
13856;DHT22;6998;53.608;9.958;2022-07-03T00:46:56;18.90;99.90
13856;DHT22;6998;53.608;9.958;2022-07-03T00:49:24;18.80;99.90
13856;DHT22;6998;53.608;9.958;2022-07-03T00:51:52;18.80;99.90
13856;DHT22;6998;53.608;9.958;2022-07-03T00:54:20;18.80;99.90
13856;DHT22;6998;53.608;9.958;2022-07-03T00:56:50;18.90;99.90
13856;DHT22;6998;53.608;9.958;2022-07-03T00:59:18;18.90;99.90
13856;DHT22;6998;53.608;9.958;2022-07-03T01:01:47;18.90;99.90
13856;DHT22;6998;53.608;9.958;2022-07-03T01:04:25;18.90;99.90
13856;DHT22;6998;53.608;9.958;2022-07-03T01:07:00;19.00;99.90
13856;DHT22;6998;53.608;9.958;2022-07-03T01:09:37;18.90;99.90
13856;DHT22;6998;53.608;9.958;2022-07-03T01:12:15;19.00;99.90
13856;DHT22;6998;53.608;9.958;2022-07-03T01:14:51;19.00;99.90
13856;DHT22;6998;53.608;9.958;2022-07-03T01:17:25;19.00;99.90
13856;DHT22;6998;53.608;9.958;2022-07-03T01:19:57;19.00;99.90
13856;DHT22;6998;53.608;9.958;2022-07-03T01:22:32;19.00;99.90
13856;DHT22;6998;53.608;9.958;2022-07-03T01:25:21;18.90;99.90
13856;DHT22;6998;53.608;9.958;2022-07-03T01:28:01;18.90;99.90
13856;DHT22;6998;53.608;9.958;2022-07-03T01:30:32;18.90;99.90
13856;DHT22;6998;53.608;9.958;2022-07-03T01:33:01;18.90;99.90
13856;DHT22;6998;53.608;9.958;2022-07-03T01:35:33;18.80;99.90
13856;DHT22;6998;53.608;9.958;2022-07-03T01:38:06;18.90;99.90
13856;DHT22;6998;53.608;9.958;2022-07-03T01:40:35;18.80;99.90
13856;DHT22;6998;53.608;9.958;2022-07-03T01:43:06;18.80;99.90
13856;DHT22;6998;53.608;9.958;2022-07-03T01:45:38;18.80;99.90
13856;DHT22;6998;53.608;9.958;2022-07-03T01:48:06;18.80;99.90
13856;DHT22;6998;53.608;9.958;2022-07-03T01:50:33;18.80;99.90
13856;DHT22;6998;53.608;9.958;2022-07-03T01:53:02;18.80;99.90
13856;DHT22;6998;53.608;9.958;2022-07-03T01:55:30;18.70;99.90
13856;DHT22;6998;53.608;9.958;2022-07-03T01:57:57;18.70;99.90
13856;DHT22;6998;53.608;9.958;2022-07-03T02:00:26;18.60;99.90
13856;DHT22;6998;53.608;9.958;2022-07-03T02:02:57;18.70;99.90
13856;DHT22;6998;53.608;9.958;2022-07-03T02:05:37;18.70;99.90
13856;DHT22;6998;53.608;9.958;2022-07-03T02:08:15;18.60;99.90
13856;DHT22;6998;53.608;9.958;2022-07-03T02:11:04;18.70;99.90
13856;DHT22;6998;53.608;9.958;2022-07-03T02:13:38;18.70;99.90
13856;DHT22;6998;53.608;9.958;2022-07-03T02:16:08;18.80;99.90
13856;DHT22;6998;53.608;9.958;2022-07-03T02:18:36;18.70;99.90
13856;DHT22;6998;53.608;9.958;2022-07-03T02:21:07;18.80;99.90
13856;DHT22;6998;53.608;9.958;2022-07-03T02:23:45;18.80;99.90
13856;DHT22;6998;53.608;9.958;2022-07-03T02:26:15;18.70;99.90
13856;DHT22;6998;53.608;9.958;2022-07-03T02:28:53;18.70;99.90
13856;DHT22;6998;53.608;9.958;2022-07-03T02:31:24;18.70;99.90
13856;DHT22;6998;53.608;9.958;2022-07-03T02:33:56;18.60;99.90
13856;DHT22;6998;53.608;9.958;2022-07-03T02:36:23;18.60;99.90
13856;DHT22;6998;53.608;9.958;2022-07-03T02:38:55;18.60;99.90
13856;DHT22;6998;53.608;9.958;2022-07-03T02:41:24;18.60;99.90
13856;DHT22;6998;53.608;9.958;2022-07-03T02:43:57;18.50;99.90
13856;DHT22;6998;53.608;9.958;2022-07-03T02:46:34;18.50;99.90
13856;DHT22;6998;53.608;9.958;2022-07-03T02:49:31;18.40;99.90
13856;DHT22;6998;53.608;9.958;2022-07-03T02:52:08;18.40;99.90
13856;DHT22;6998;53.608;9.958;2022-07-03T02:54:44;18.40;99.90
13856;DHT22;6998;53.608;9.958;2022-07-03T02:57:13;18.30;99.90
13856;DHT22;6998;53.608;9.958;2022-07-03T02:59:48;18.20;99.90
13856;DHT22;6998;53.608;9.958;2022-07-03T03:02:32;18.20;99.90
13856;DHT22;6998;53.608;9.958;2022-07-03T03:05:06;18.10;99.90
13856;DHT22;6998;53.608;9.958;2022-07-03T03:07:35;18.10;99.90
13856;DHT22;6998;53.608;9.958;2022-07-03T03:10:08;18.10;99.90
13856;DHT22;6998;53.608;9.958;2022-07-03T03:12:37;18.10;99.90
13856;DHT22;6998;53.608;9.958;2022-07-03T03:15:05;18.10;99.90
13856;DHT22;6998;53.608;9.958;2022-07-03T03:17:39;18.00;99.90
13856;DHT22;6998;53.608;9.958;2022-07-03T03:20:08;18.00;99.90
13856;DHT22;6998;53.608;9.958;2022-07-03T03:22:49;17.90;99.90
13856;DHT22;6998;53.608;9.958;2022-07-03T03:25:20;18.00;99.90
13856;DHT22;6998;53.608;9.958;2022-07-03T03:27:49;18.10;99.90
13856;DHT22;6998;53.608;9.958;2022-07-03T03:30:16;18.20;99.90
13856;DHT22;6998;53.608;9.958;2022-07-03T03:32:45;18.20;99.90
13856;DHT22;6998;53.608;9.958;2022-07-03T03:35:11;18.10;99.90
13856;DHT22;6998;53.608;9.958;2022-07-03T03:37:38;18.20;99.90
13856;DHT22;6998;53.608;9.958;2022-07-03T03:40:06;18.10;99.90
13856;DHT22;6998;53.608;9.958;2022-07-03T03:42:33;18.20;99.90
13856;DHT22;6998;53.608;9.958;2022-07-03T03:44:59;18.10;99.90
13856;DHT22;6998;53.608;9.958;2022-07-03T03:47:26;18.10;99.90
13856;DHT22;6998;53.608;9.958;2022-07-03T03:49:55;18.20;99.90
13856;DHT22;6998;53.608;9.958;2022-07-03T03:52:22;18.10;99.90
13856;DHT22;6998;53.608;9.958;2022-07-03T03:54:48;18.10;99.90
13856;DHT22;6998;53.608;9.958;2022-07-03T03:57:17;18.00;99.90
13856;DHT22;6998;53.608;9.958;2022-07-03T03:59:44;18.00;99.90
13856;DHT22;6998;53.608;9.958;2022-07-03T04:02:11;18.00;99.90
13856;DHT22;6998;53.608;9.958;2022-07-03T04:04:38;18.00;99.90
13856;DHT22;6998;53.608;9.958;2022-07-03T04:07:06;18.00;99.90
13856;DHT22;6998;53.608;9.958;2022-07-03T04:09:33;18.00;99.90
13856;DHT22;6998;53.608;9.958;2022-07-03T04:12:00;18.00;99.90
13856;DHT22;6998;53.608;9.958;2022-07-03T04:14:27;18.00;99.90
13856;DHT22;6998;53.608;9.958;2022-07-03T04:16:53;18.10;99.90
13856;DHT22;6998;53.608;9.958;2022-07-03T04:19:21;18.10;99.90
13856;DHT22;6998;53.608;9.958;2022-07-03T04:21:47;18.20;99.90
13856;DHT22;6998;53.608;9.958;2022-07-03T04:24:16;18.30;99.90
13856;DHT22;6998;53.608;9.958;2022-07-03T04:26:43;18.40;99.90
13856;DHT22;6998;53.608;9.958;2022-07-03T04:29:10;18.40;99.90
13856;DHT22;6998;53.608;9.958;2022-07-03T04:31:36;18.50;99.90
13856;DHT22;6998;53.608;9.958;2022-07-03T04:34:03;18.60;99.90
13856;DHT22;6998;53.608;9.958;2022-07-03T04:36:30;18.70;99.90
13856;DHT22;6998;53.608;9.958;2022-07-03T04:38:57;18.80;99.90
13856;DHT22;6998;53.608;9.958;2022-07-03T04:41:25;18.90;99.90
13856;DHT22;6998;53.608;9.958;2022-07-03T04:43:51;19.00;99.90
13856;DHT22;6998;53.608;9.958;2022-07-03T04:46:18;18.90;99.90
13856;DHT22;6998;53.608;9.958;2022-07-03T04:48:46;19.00;99.90
13856;DHT22;6998;53.608;9.958;2022-07-03T04:51:13;19.10;99.90
13856;DHT22;6998;53.608;9.958;2022-07-03T04:53:40;19.20;99.90
13856;DHT22;6998;53.608;9.958;2022-07-03T04:56:07;19.20;99.90
13856;DHT22;6998;53.608;9.958;2022-07-03T04:58:35;19.30;99.90
13856;DHT22;6998;53.608;9.958;2022-07-03T05:01:01;19.40;99.90
13856;DHT22;6998;53.608;9.958;2022-07-03T05:03:28;19.50;99.90
13856;DHT22;6998;53.608;9.958;2022-07-03T05:05:55;19.50;99.90
13856;DHT22;6998;53.608;9.958;2022-07-03T05:08:21;19.40;99.90
13856;DHT22;6998;53.608;9.958;2022-07-03T05:10:48;19.30;99.90
13856;DHT22;6998;53.608;9.958;2022-07-03T05:13:15;19.20;99.90
13856;DHT22;6998;53.608;9.958;2022-07-03T05:15:43;19.20;99.90
13856;DHT22;6998;53.608;9.958;2022-07-03T05:18:09;19.20;99.90
13856;DHT22;6998;53.608;9.958;2022-07-03T05:20:36;19.20;99.90
13856;DHT22;6998;53.608;9.958;2022-07-03T05:23:03;19.30;99.90
13856;DHT22;6998;53.608;9.958;2022-07-03T05:25:31;19.30;99.90
13856;DHT22;6998;53.608;9.958;2022-07-03T05:27:57;19.30;99.90
13856;DHT22;6998;53.608;9.958;2022-07-03T05:30:25;19.40;99.90
13856;DHT22;6998;53.608;9.958;2022-07-03T05:32:54;19.50;99.90
13856;DHT22;6998;53.608;9.958;2022-07-03T05:35:20;19.50;99.90
13856;DHT22;6998;53.608;9.958;2022-07-03T05:37:47;19.60;99.90
13856;DHT22;6998;53.608;9.958;2022-07-03T05:40:14;19.80;99.90
13856;DHT22;6998;53.608;9.958;2022-07-03T05:42:41;19.90;99.90
13856;DHT22;6998;53.608;9.958;2022-07-03T05:45:09;19.80;99.90
13856;DHT22;6998;53.608;9.958;2022-07-03T05:47:36;19.80;99.90
13856;DHT22;6998;53.608;9.958;2022-07-03T05:50:04;19.80;99.90
13856;DHT22;6998;53.608;9.958;2022-07-03T05:52:31;20.00;99.90
13856;DHT22;6998;53.608;9.958;2022-07-03T05:54:58;20.20;99.90
13856;DHT22;6998;53.608;9.958;2022-07-03T05:57:25;20.30;99.90
13856;DHT22;6998;53.608;9.958;2022-07-03T05:59:51;20.40;99.90
13856;DHT22;6998;53.608;9.958;2022-07-03T06:02:18;20.50;99.90
13856;DHT22;6998;53.608;9.958;2022-07-03T06:04:45;20.80;99.90
13856;DHT22;6998;53.608;9.958;2022-07-03T06:07:13;21.00;99.90
13856;DHT22;6998;53.608;9.958;2022-07-03T06:09:42;21.20;99.90
13856;DHT22;6998;53.608;9.958;2022-07-03T06:12:09;21.60;99.90
13856;DHT22;6998;53.608;9.958;2022-07-03T06:14:36;21.80;99.90
13856;DHT22;6998;53.608;9.958;2022-07-03T06:17:03;22.10;99.90
13856;DHT22;6998;53.608;9.958;2022-07-03T06:19:30;22.40;99.90
13856;DHT22;6998;53.608;9.958;2022-07-03T06:21:57;22.70;99.90
13856;DHT22;6998;53.608;9.958;2022-07-03T06:24:25;23.00;99.90
13856;DHT22;6998;53.608;9.958;2022-07-03T06:26:53;23.20;99.90
13856;DHT22;6998;53.608;9.958;2022-07-03T06:29:19;23.40;99.90
13856;DHT22;6998;53.608;9.958;2022-07-03T06:31:46;23.50;99.90
13856;DHT22;6998;53.608;9.958;2022-07-03T06:34:13;23.50;99.90
13856;DHT22;6998;53.608;9.958;2022-07-03T06:36:39;23.40;99.90
13856;DHT22;6998;53.608;9.958;2022-07-03T06:39:06;23.40;99.90
13856;DHT22;6998;53.608;9.958;2022-07-03T06:41:34;23.50;99.90
13856;DHT22;6998;53.608;9.958;2022-07-03T06:44:01;23.60;99.90
13856;DHT22;6998;53.608;9.958;2022-07-03T06:46:28;23.70;99.90
13856;DHT22;6998;53.608;9.958;2022-07-03T06:48:54;23.80;99.90
13856;DHT22;6998;53.608;9.958;2022-07-03T06:51:21;23.80;99.90
13856;DHT22;6998;53.608;9.958;2022-07-03T06:53:48;23.90;99.90
13856;DHT22;6998;53.608;9.958;2022-07-03T06:56:15;23.90;99.90
13856;DHT22;6998;53.608;9.958;2022-07-03T06:58:43;23.90;99.90
13856;DHT22;6998;53.608;9.958;2022-07-03T07:01:10;23.90;99.90
13856;DHT22;6998;53.608;9.958;2022-07-03T07:03:36;23.80;99.90
13856;DHT22;6998;53.608;9.958;2022-07-03T07:06:03;23.80;99.90
13856;DHT22;6998;53.608;9.958;2022-07-03T07:08:30;23.70;99.90
13856;DHT22;6998;53.608;9.958;2022-07-03T07:10:56;23.80;99.90
13856;DHT22;6998;53.608;9.958;2022-07-03T07:13:23;23.90;99.90
13856;DHT22;6998;53.608;9.958;2022-07-03T07:15:51;23.90;99.90
13856;DHT22;6998;53.608;9.958;2022-07-03T07:18:18;23.90;99.90
13856;DHT22;6998;53.608;9.958;2022-07-03T07:20:45;23.90;99.90
13856;DHT22;6998;53.608;9.958;2022-07-03T07:23:11;24.00;99.90
13856;DHT22;6998;53.608;9.958;2022-07-03T07:25:38;24.20;99.90
13856;DHT22;6998;53.608;9.958;2022-07-03T07:28:05;24.40;99.90
13856;DHT22;6998;53.608;9.958;2022-07-03T07:30:32;24.60;99.90
13856;DHT22;6998;53.608;9.958;2022-07-03T07:33:00;24.70;99.90
13856;DHT22;6998;53.608;9.958;2022-07-03T07:35:26;24.70;99.90
13856;DHT22;6998;53.608;9.958;2022-07-03T07:37:53;24.90;99.90
13856;DHT22;6998;53.608;9.958;2022-07-03T07:40:20;25.00;99.90
13856;DHT22;6998;53.608;9.958;2022-07-03T07:42:47;25.10;99.90
13856;DHT22;6998;53.608;9.958;2022-07-03T07:45:13;25.20;99.90
13856;DHT22;6998;53.608;9.958;2022-07-03T07:47:40;25.20;99.90
13856;DHT22;6998;53.608;9.958;2022-07-03T07:50:09;25.30;99.90
13856;DHT22;6998;53.608;9.958;2022-07-03T07:52:36;25.40;99.90
13856;DHT22;6998;53.608;9.958;2022-07-03T07:55:05;25.50;99.90
13856;DHT22;6998;53.608;9.958;2022-07-03T07:57:35;25.70;99.90
13856;DHT22;6998;53.608;9.958;2022-07-03T08:00:07;25.80;99.90
13856;DHT22;6998;53.608;9.958;2022-07-03T08:02:34;26.10;99.90
13856;DHT22;6998;53.608;9.958;2022-07-03T08:05:19;26.30;99.90
13856;DHT22;6998;53.608;9.958;2022-07-03T08:08:06;26.40;99.90
13856;DHT22;6998;53.608;9.958;2022-07-03T08:10:37;26.60;99.90
13856;DHT22;6998;53.608;9.958;2022-07-03T08:13:05;26.60;99.90
13856;DHT22;6998;53.608;9.958;2022-07-03T08:15:32;26.70;99.90
13856;DHT22;6998;53.608;9.958;2022-07-03T08:17:59;26.80;99.90
13856;DHT22;6998;53.608;9.958;2022-07-03T08:20:27;26.80;99.90
13856;DHT22;6998;53.608;9.958;2022-07-03T08:22:54;26.80;99.90
13856;DHT22;6998;53.608;9.958;2022-07-03T08:25:21;27.00;99.90
13856;DHT22;6998;53.608;9.958;2022-07-03T08:27:48;26.90;99.90
13856;DHT22;6998;53.608;9.958;2022-07-03T08:30:17;27.10;99.90
13856;DHT22;6998;53.608;9.958;2022-07-03T08:32:44;27.20;99.90
13856;DHT22;6998;53.608;9.958;2022-07-03T08:35:11;27.40;99.90
13856;DHT22;6998;53.608;9.958;2022-07-03T08:37:39;27.40;99.90
13856;DHT22;6998;53.608;9.958;2022-07-03T08:40:09;27.50;99.90
13856;DHT22;6998;53.608;9.958;2022-07-03T08:42:37;27.50;99.90
13856;DHT22;6998;53.608;9.958;2022-07-03T08:45:07;27.50;99.90
13856;DHT22;6998;53.608;9.958;2022-07-03T08:47:36;27.70;99.90
13856;DHT22;6998;53.608;9.958;2022-07-03T08:50:04;28.00;99.90
13856;DHT22;6998;53.608;9.958;2022-07-03T08:52:33;28.40;99.90
13856;DHT22;6998;53.608;9.958;2022-07-03T08:55:03;28.90;99.90
13856;DHT22;6998;53.608;9.958;2022-07-03T08:57:31;28.90;99.90
13856;DHT22;6998;53.608;9.958;2022-07-03T09:00:01;29.00;99.90
13856;DHT22;6998;53.608;9.958;2022-07-03T09:02:30;28.80;99.90
13856;DHT22;6998;53.608;9.958;2022-07-03T09:04:57;28.70;99.90
13856;DHT22;6998;53.608;9.958;2022-07-03T09:07:26;28.40;99.90
13856;DHT22;6998;53.608;9.958;2022-07-03T09:09:53;28.30;99.90
13856;DHT22;6998;53.608;9.958;2022-07-03T09:12:22;28.20;99.90
13856;DHT22;6998;53.608;9.958;2022-07-03T09:14:49;28.00;99.90
13856;DHT22;6998;53.608;9.958;2022-07-03T09:17:16;27.90;99.90
13856;DHT22;6998;53.608;9.958;2022-07-03T09:19:44;27.60;99.90
13856;DHT22;6998;53.608;9.958;2022-07-03T09:22:23;27.30;99.90
13856;DHT22;6998;53.608;9.958;2022-07-03T09:24:52;27.10;99.90
13856;DHT22;6998;53.608;9.958;2022-07-03T09:27:22;27.00;99.90
13856;DHT22;6998;53.608;9.958;2022-07-03T09:29:59;27.00;99.90
13856;DHT22;6998;53.608;9.958;2022-07-03T09:32:31;26.90;99.90
13856;DHT22;6998;53.608;9.958;2022-07-03T09:35:17;26.80;99.90
13856;DHT22;6998;53.608;9.958;2022-07-03T09:37:49;26.80;99.90
13856;DHT22;6998;53.608;9.958;2022-07-03T09:40:16;26.90;99.90
13856;DHT22;6998;53.608;9.958;2022-07-03T09:42:58;26.80;99.90
13856;DHT22;6998;53.608;9.958;2022-07-03T09:45:25;26.90;99.90
13856;DHT22;6998;53.608;9.958;2022-07-03T09:47:52;26.80;99.90
13856;DHT22;6998;53.608;9.958;2022-07-03T09:50:19;26.70;99.90
13856;DHT22;6998;53.608;9.958;2022-07-03T09:52:46;26.80;99.90
13856;DHT22;6998;53.608;9.958;2022-07-03T09:55:16;26.80;99.90
13856;DHT22;6998;53.608;9.958;2022-07-03T09:57:45;27.00;99.90
13856;DHT22;6998;53.608;9.958;2022-07-03T10:00:15;27.00;99.90
13856;DHT22;6998;53.608;9.958;2022-07-03T10:02:56;27.30;99.90
13856;DHT22;6998;53.608;9.958;2022-07-03T10:05:24;27.40;99.90
13856;DHT22;6998;53.608;9.958;2022-07-03T10:07:54;27.60;99.90
13856;DHT22;6998;53.608;9.958;2022-07-03T10:10:23;27.90;99.90
13856;DHT22;6998;53.608;9.958;2022-07-03T10:12:51;28.10;99.90
13856;DHT22;6998;53.608;9.958;2022-07-03T10:15:20;28.30;99.90
13856;DHT22;6998;53.608;9.958;2022-07-03T10:17:49;28.50;99.90
13856;DHT22;6998;53.608;9.958;2022-07-03T10:20:24;28.60;99.90
13856;DHT22;6998;53.608;9.958;2022-07-03T10:22:52;28.60;99.90
13856;DHT22;6998;53.608;9.958;2022-07-03T10:25:19;28.80;99.90
13856;DHT22;6998;53.608;9.958;2022-07-03T10:27:46;29.00;99.90
13856;DHT22;6998;53.608;9.958;2022-07-03T10:30:14;29.00;99.10
13856;DHT22;6998;53.608;9.958;2022-07-03T10:32:44;28.70;98.50
13856;DHT22;6998;53.608;9.958;2022-07-03T10:35:13;28.80;99.80
13856;DHT22;6998;53.608;9.958;2022-07-03T10:37:50;28.60;99.50
13856;DHT22;6998;53.608;9.958;2022-07-03T10:40:24;28.80;99.90
13856;DHT22;6998;53.608;9.958;2022-07-03T10:43:21;28.90;97.90
13856;DHT22;6998;53.608;9.958;2022-07-03T10:46:09;29.00;97.30
13856;DHT22;6998;53.608;9.958;2022-07-03T10:49:00;29.20;98.70
13856;DHT22;6998;53.608;9.958;2022-07-03T10:51:29;29.60;97.00
13856;DHT22;6998;53.608;9.958;2022-07-03T10:54:19;29.80;98.00
13856;DHT22;6998;53.608;9.958;2022-07-03T10:57:15;30.10;96.20
13856;DHT22;6998;53.608;9.958;2022-07-03T11:00:06;30.10;95.30
13856;DHT22;6998;53.608;9.958;2022-07-03T11:02:35;30.10;96.40
13856;DHT22;6998;53.608;9.958;2022-07-03T11:05:24;30.40;95.70
13856;DHT22;6998;53.608;9.958;2022-07-03T11:10:47;31.10;96.50
13856;DHT22;6998;53.608;9.958;2022-07-03T11:13:34;31.20;95.30
13856;DHT22;6998;53.608;9.958;2022-07-03T11:16:01;30.90;94.30
13856;DHT22;6998;53.608;9.958;2022-07-03T11:18:30;30.80;94.10
13856;DHT22;6998;53.608;9.958;2022-07-03T11:21:33;30.70;93.80
13856;DHT22;6998;53.608;9.958;2022-07-03T11:24:30;30.40;94.30
13856;DHT22;6998;53.608;9.958;2022-07-03T11:27:23;30.20;95.40
13856;DHT22;6998;53.608;9.958;2022-07-03T11:29:58;30.50;95.70
13856;DHT22;6998;53.608;9.958;2022-07-03T11:32:51;30.40;95.20
13856;DHT22;6998;53.608;9.958;2022-07-03T11:35:51;30.40;95.70
13856;DHT22;6998;53.608;9.958;2022-07-03T11:38:28;30.30;93.70
13856;DHT22;6998;53.608;9.958;2022-07-03T11:40:56;30.20;93.70
13856;DHT22;6998;53.608;9.958;2022-07-03T11:43:24;30.40;93.20
13856;DHT22;6998;53.608;9.958;2022-07-03T11:45:51;30.40;94.40
13856;DHT22;6998;53.608;9.958;2022-07-03T11:48:19;30.40;92.90
13856;DHT22;6998;53.608;9.958;2022-07-03T11:50:47;30.70;92.50
13856;DHT22;6998;53.608;9.958;2022-07-03T11:53:18;31.00;93.80
13856;DHT22;6998;53.608;9.958;2022-07-03T11:55:51;31.20;93.80
13856;DHT22;6998;53.608;9.958;2022-07-03T11:58:18;31.30;94.50
13856;DHT22;6998;53.608;9.958;2022-07-03T12:00:46;31.40;94.80
13856;DHT22;6998;53.608;9.958;2022-07-03T12:03:20;31.40;95.30
13856;DHT22;6998;53.608;9.958;2022-07-03T12:05:57;31.60;95.20
13856;DHT22;6998;53.608;9.958;2022-07-03T12:08:27;31.40;94.30
13856;DHT22;6998;53.608;9.958;2022-07-03T12:11:00;31.10;94.70
13856;DHT22;6998;53.608;9.958;2022-07-03T12:13:28;30.80;94.80
13856;DHT22;6998;53.608;9.958;2022-07-03T12:16:06;30.50;95.40
13856;DHT22;6998;53.608;9.958;2022-07-03T12:18:43;30.50;95.70
13856;DHT22;6998;53.608;9.958;2022-07-03T12:21:10;30.50;95.70
13856;DHT22;6998;53.608;9.958;2022-07-03T12:23:42;30.50;95.80
13856;DHT22;6998;53.608;9.958;2022-07-03T12:26:10;30.40;95.00
13856;DHT22;6998;53.608;9.958;2022-07-03T12:28:38;30.20;94.60
13856;DHT22;6998;53.608;9.958;2022-07-03T12:31:05;30.00;94.70
13856;DHT22;6998;53.608;9.958;2022-07-03T12:33:32;30.00;94.80
13856;DHT22;6998;53.608;9.958;2022-07-03T12:36:05;30.20;94.90
13856;DHT22;6998;53.608;9.958;2022-07-03T12:38:32;30.60;94.60
13856;DHT22;6998;53.608;9.958;2022-07-03T12:41:04;30.80;94.70
13856;DHT22;6998;53.608;9.958;2022-07-03T12:43:38;31.20;95.10
13856;DHT22;6998;53.608;9.958;2022-07-03T12:46:18;31.30;92.20
13856;DHT22;6998;53.608;9.958;2022-07-03T12:48:46;31.50;92.20
13856;DHT22;6998;53.608;9.958;2022-07-03T12:51:13;31.50;92.70
13856;DHT22;6998;53.608;9.958;2022-07-03T12:53:40;31.50;92.30
13856;DHT22;6998;53.608;9.958;2022-07-03T12:56:08;31.40;91.70
13856;DHT22;6998;53.608;9.958;2022-07-03T12:58:38;31.20;91.60
13856;DHT22;6998;53.608;9.958;2022-07-03T13:01:24;31.00;91.20
13856;DHT22;6998;53.608;9.958;2022-07-03T13:03:52;31.00;91.60
13856;DHT22;6998;53.608;9.958;2022-07-03T13:06:20;30.80;91.60
13856;DHT22;6998;53.608;9.958;2022-07-03T13:08:54;30.70;91.10
13856;DHT22;6998;53.608;9.958;2022-07-03T13:11:26;30.70;91.10
13856;DHT22;6998;53.608;9.958;2022-07-03T13:14:04;30.80;92.20
13856;DHT22;6998;53.608;9.958;2022-07-03T13:16:36;31.10;90.90
13856;DHT22;6998;53.608;9.958;2022-07-03T13:19:05;31.20;90.10
13856;DHT22;6998;53.608;9.958;2022-07-03T13:21:32;31.30;90.20
13856;DHT22;6998;53.608;9.958;2022-07-03T13:23:59;31.30;90.80
13856;DHT22;6998;53.608;9.958;2022-07-03T13:26:25;31.30;91.20
13856;DHT22;6998;53.608;9.958;2022-07-03T13:28:53;31.10;90.60
13856;DHT22;6998;53.608;9.958;2022-07-03T13:31:21;31.10;90.60
13856;DHT22;6998;53.608;9.958;2022-07-03T13:33:47;31.10;90.40
13856;DHT22;6998;53.608;9.958;2022-07-03T13:36:14;30.80;89.00
13856;DHT22;6998;53.608;9.958;2022-07-03T13:38:42;30.60;90.10
13856;DHT22;6998;53.608;9.958;2022-07-03T13:41:09;30.60;88.00
13856;DHT22;6998;53.608;9.958;2022-07-03T13:43:35;30.80;90.00
13856;DHT22;6998;53.608;9.958;2022-07-03T13:46:02;31.20;89.90
13856;DHT22;6998;53.608;9.958;2022-07-03T13:48:30;31.50;90.00
13856;DHT22;6998;53.608;9.958;2022-07-03T13:50:57;31.80;85.60
13856;DHT22;6998;53.608;9.958;2022-07-03T13:53:24;32.20;83.70
13856;DHT22;6998;53.608;9.958;2022-07-03T13:55:51;32.40;85.20
13856;DHT22;6998;53.608;9.958;2022-07-03T13:58:17;32.50;80.60
13856;DHT22;6998;53.608;9.958;2022-07-03T14:00:44;32.60;77.70
13856;DHT22;6998;53.608;9.958;2022-07-03T14:03:11;32.50;78.60
13856;DHT22;6998;53.608;9.958;2022-07-03T14:05:39;32.40;79.40
13856;DHT22;6998;53.608;9.958;2022-07-03T14:08:06;32.40;78.10
13856;DHT22;6998;53.608;9.958;2022-07-03T14:10:32;32.20;78.80
13856;DHT22;6998;53.608;9.958;2022-07-03T14:12:59;32.30;76.70
13856;DHT22;6998;53.608;9.958;2022-07-03T14:15:28;32.40;78.90
13856;DHT22;6998;53.608;9.958;2022-07-03T14:17:54;32.00;74.10
13856;DHT22;6998;53.608;9.958;2022-07-03T14:20:25;31.80;78.10
13856;DHT22;6998;53.608;9.958;2022-07-03T14:22:53;31.80;74.60
13856;DHT22;6998;53.608;9.958;2022-07-03T14:25:20;32.10;73.00
13856;DHT22;6998;53.608;9.958;2022-07-03T14:27:46;32.00;74.60
13856;DHT22;6998;53.608;9.958;2022-07-03T14:30:31;32.20;79.30
13856;DHT22;6998;53.608;9.958;2022-07-03T14:33:15;32.30;74.40
13856;DHT22;6998;53.608;9.958;2022-07-03T14:35:41;32.50;79.20
13856;DHT22;6998;53.608;9.958;2022-07-03T14:38:10;32.40;72.80
13856;DHT22;6998;53.608;9.958;2022-07-03T14:40:36;31.80;76.80
13856;DHT22;6998;53.608;9.958;2022-07-03T14:43:03;31.40;75.80
13856;DHT22;6998;53.608;9.958;2022-07-03T14:45:30;31.40;77.40
13856;DHT22;6998;53.608;9.958;2022-07-03T14:47:56;31.20;77.20
13856;DHT22;6998;53.608;9.958;2022-07-03T14:50:23;31.20;77.00
13856;DHT22;6998;53.608;9.958;2022-07-03T14:52:50;31.00;78.60
13856;DHT22;6998;53.608;9.958;2022-07-03T14:55:18;30.60;76.50
13856;DHT22;6998;53.608;9.958;2022-07-03T14:57:51;30.40;76.00
13856;DHT22;6998;53.608;9.958;2022-07-03T15:00:19;30.30;78.90
13856;DHT22;6998;53.608;9.958;2022-07-03T15:02:49;30.10;82.30
13856;DHT22;6998;53.608;9.958;2022-07-03T15:05:18;30.00;80.20
13856;DHT22;6998;53.608;9.958;2022-07-03T15:07:58;30.10;84.70
13856;DHT22;6998;53.608;9.958;2022-07-03T15:10:32;30.20;83.20
13856;DHT22;6998;53.608;9.958;2022-07-03T15:13:01;30.30;82.20
13856;DHT22;6998;53.608;9.958;2022-07-03T15:15:29;30.50;81.00
13856;DHT22;6998;53.608;9.958;2022-07-03T15:17:58;30.80;80.50
13856;DHT22;6998;53.608;9.958;2022-07-03T15:20:26;31.10;81.40
13856;DHT22;6998;53.608;9.958;2022-07-03T15:22:57;31.20;80.80
13856;DHT22;6998;53.608;9.958;2022-07-03T15:25:26;31.00;79.70
13856;DHT22;6998;53.608;9.958;2022-07-03T15:27:55;30.40;81.20
13856;DHT22;6998;53.608;9.958;2022-07-03T15:30:23;30.20;82.50
13856;DHT22;6998;53.608;9.958;2022-07-03T15:32:51;30.00;84.60
13856;DHT22;6998;53.608;9.958;2022-07-03T15:35:20;29.60;87.30
13856;DHT22;6998;53.608;9.958;2022-07-03T15:38:00;28.90;91.90
13856;DHT22;6998;53.608;9.958;2022-07-03T15:40:32;28.00;94.50
13856;DHT22;6998;53.608;9.958;2022-07-03T15:46:16;26.70;99.50
13856;DHT22;6998;53.608;9.958;2022-07-03T15:48:52;26.10;99.90
13856;DHT22;6998;53.608;9.958;2022-07-03T15:51:20;25.80;99.90
13856;DHT22;6998;53.608;9.958;2022-07-03T15:53:55;25.40;99.90
13856;DHT22;6998;53.608;9.958;2022-07-03T15:56:25;25.10;99.90
13856;DHT22;6998;53.608;9.958;2022-07-03T15:59:00;25.00;99.90
13856;DHT22;6998;53.608;9.958;2022-07-03T16:01:29;25.10;99.90
13856;DHT22;6998;53.608;9.958;2022-07-03T16:04:22;25.00;99.90
13856;DHT22;6998;53.608;9.958;2022-07-03T16:06:54;24.70;99.90
13856;DHT22;6998;53.608;9.958;2022-07-03T16:09:21;24.50;99.90
13856;DHT22;6998;53.608;9.958;2022-07-03T16:11:49;24.30;99.90